sensor_id;sensor_type;location;lat;lon;timestamp;pressure;altitude;pressure_sealevel;temperature;humidity
30598;BME280;17365;48.878;8.334;2023-06-22T00:02:12;99962.38;;;23.45;76.57
30598;BME280;17365;48.878;8.334;2023-06-22T00:04:37;99951.84;;;23.61;76.02
30598;BME280;17365;48.878;8.334;2023-06-22T00:07:03;99958.56;;;23.67;75.70
30598;BME280;17365;48.878;8.334;2023-06-22T00:09:28;99961.25;;;23.83;74.46
30598;BME280;17365;48.878;8.334;2023-06-22T00:11:53;99978.69;;;23.87;74.63
30598;BME280;17365;48.878;8.334;2023-06-22T00:14:18;100012.63;;;24.11;73.40
30598;BME280;17365;48.878;8.334;2023-06-22T00:16:43;100073.44;;;24.15;73.25
30598;BME280;17365;48.878;8.334;2023-06-22T00:19:08;100147.09;;;24.25;72.97
30598;BME280;17365;48.878;8.334;2023-06-22T00:21:36;100223.94;;;23.92;75.00
30598;BME280;17365;48.878;8.334;2023-06-22T00:24:02;100251.97;;;23.96;76.07
30598;BME280;17365;48.878;8.334;2023-06-22T00:26:27;100199.78;;;23.81;76.93
30598;BME280;17365;48.878;8.334;2023-06-22T00:28:53;100095.78;;;23.60;78.52
30598;BME280;17365;48.878;8.334;2023-06-22T00:31:18;100033.16;;;23.42;79.41
30598;BME280;17365;48.878;8.334;2023-06-22T00:33:43;99980.03;;;23.12;81.50
30598;BME280;17365;48.878;8.334;2023-06-22T00:36:08;99968.13;;;23.03;82.50
30598;BME280;17365;48.878;8.334;2023-06-22T00:38:34;99969.50;;;23.10;81.62
30598;BME280;17365;48.878;8.334;2023-06-22T00:40:59;99975.38;;;23.33;79.91
30598;BME280;17365;48.878;8.334;2023-06-22T00:43:24;99989.34;;;23.19;80.68
30598;BME280;17365;48.878;8.334;2023-06-22T00:45:49;99994.75;;;23.50;78.78
30598;BME280;17365;48.878;8.334;2023-06-22T00:48:15;99998.06;;;23.21;80.89
30598;BME280;17365;48.878;8.334;2023-06-22T00:50:40;100003.06;;;23.27;80.66
30598;BME280;17365;48.878;8.334;2023-06-22T00:53:07;100002.50;;;23.38;79.27
30598;BME280;17365;48.878;8.334;2023-06-22T00:55:36;100005.56;;;23.63;77.90
30598;BME280;17365;48.878;8.334;2023-06-22T00:58:07;100006.50;;;23.62;78.04
30598;BME280;17365;48.878;8.334;2023-06-22T01:00:35;100023.31;;;22.93;82.37
30598;BME280;17365;48.878;8.334;2023-06-22T01:03:01;100030.75;;;22.32;88.50
30598;BME280;17365;48.878;8.334;2023-06-22T01:05:26;100032.09;;;22.22;91.34
30598;BME280;17365;48.878;8.334;2023-06-22T01:07:58;100033.63;;;22.08;93.09
30598;BME280;17365;48.878;8.334;2023-06-22T01:10:31;100034.16;;;22.15;93.90
30598;BME280;17365;48.878;8.334;2023-06-22T01:13:07;100034.41;;;22.11;95.08
30598;BME280;17365;48.878;8.334;2023-06-22T01:15:37;100030.00;;;22.28;93.43
30598;BME280;17365;48.878;8.334;2023-06-22T01:18:04;100021.66;;;22.19;93.85
30598;BME280;17365;48.878;8.334;2023-06-22T01:20:30;100028.41;;;22.05;95.16
30598;BME280;17365;48.878;8.334;2023-06-22T01:23:05;100029.19;;;22.09;95.68
30598;BME280;17365;48.878;8.334;2023-06-22T01:25:33;100031.00;;;22.07;95.91
30598;BME280;17365;48.878;8.334;2023-06-22T01:30:32;100037.59;;;22.36;93.32
30598;BME280;17365;48.878;8.334;2023-06-22T01:32:59;100037.94;;;22.28;93.94
30598;BME280;17365;48.878;8.334;2023-06-22T01:35:26;100038.25;;;22.22;94.37
30598;BME280;17365;48.878;8.334;2023-06-22T01:37:52;100045.69;;;22.50;92.21
30598;BME280;17365;48.878;8.334;2023-06-22T01:40:17;100045.34;;;22.39;92.97
30598;BME280;17365;48.878;8.334;2023-06-22T01:42:44;100036.53;;;22.21;94.23
30598;BME280;17365;48.878;8.334;2023-06-22T01:45:10;100024.03;;;22.06;95.74
30598;BME280;17365;48.878;8.334;2023-06-22T01:47:36;100023.84;;;21.90;97.00
30598;BME280;17365;48.878;8.334;2023-06-22T01:50:01;100017.81;;;22.07;95.55
30598;BME280;17365;48.878;8.334;2023-06-22T01:52:26;100021.38;;;22.06;95.52
30598;BME280;17365;48.878;8.334;2023-06-22T01:54:51;100015.91;;;22.11;95.07
30598;BME280;17365;48.878;8.334;2023-06-22T01:57:17;100014.50;;;22.02;95.14
30598;BME280;17365;48.878;8.334;2023-06-22T02:02:08;100010.84;;;21.86;97.06
30598;BME280;17365;48.878;8.334;2023-06-22T02:04:56;100005.56;;;22.04;95.63
30598;BME280;17365;48.878;8.334;2023-06-22T02:07:19;100015.47;;;21.62;97.21
30598;BME280;17365;48.878;8.334;2023-06-22T02:09:46;100006.34;;;21.69;96.97
30598;BME280;17365;48.878;8.334;2023-06-22T02:12:13;100007.22;;;21.88;95.14
30598;BME280;17365;48.878;8.334;2023-06-22T02:14:41;100007.34;;;22.04;93.74
30598;BME280;17365;48.878;8.334;2023-06-22T02:17:08;99999.03;;;22.32;91.63
30598;BME280;17365;48.878;8.334;2023-06-22T02:19:37;100004.44;;;22.29;91.75
30598;BME280;17365;48.878;8.334;2023-06-22T02:22:03;100001.94;;;22.26;91.93
30598;BME280;17365;48.878;8.334;2023-06-22T02:24:28;99995.97;;;22.22;91.41
30598;BME280;17365;48.878;8.334;2023-06-22T02:26:56;99995.38;;;22.34;90.94
30598;BME280;17365;48.878;8.334;2023-06-22T02:29:22;99995.22;;;22.37;90.14
30598;BME280;17365;48.878;8.334;2023-06-22T02:31:47;99989.94;;;22.19;91.86
30598;BME280;17365;48.878;8.334;2023-06-22T02:34:12;99991.72;;;22.37;90.96
30598;BME280;17365;48.878;8.334;2023-06-22T02:36:42;99997.78;;;21.83;94.12
30598;BME280;17365;48.878;8.334;2023-06-22T02:39:19;99997.78;;;22.01;93.39
30598;BME280;17365;48.878;8.334;2023-06-22T02:41:44;99990.44;;;22.27;91.34
30598;BME280;17365;48.878;8.334;2023-06-22T02:44:09;99985.59;;;21.80;94.47
30598;BME280;17365;48.878;8.334;2023-06-22T02:46:35;99983.50;;;22.05;92.93
30598;BME280;17365;48.878;8.334;2023-06-22T02:49:00;99970.13;;;22.10;92.49
30598;BME280;17365;48.878;8.334;2023-06-22T02:51:25;99971.03;;;21.71;95.52
30598;BME280;17365;48.878;8.334;2023-06-22T02:53:51;99972.47;;;21.39;97.59
30598;BME280;17365;48.878;8.334;2023-06-22T02:56:22;99963.34;;;21.28;99.35
30598;BME280;17365;48.878;8.334;2023-06-22T02:58:50;99956.41;;;21.64;95.74
30598;BME280;17365;48.878;8.334;2023-06-22T03:01:15;99948.97;;;21.91;93.75
30598;BME280;17365;48.878;8.334;2023-06-22T03:03:40;99943.47;;;21.58;95.69
30598;BME280;17365;48.878;8.334;2023-06-22T03:06:05;99937.69;;;21.69;95.10
30598;BME280;17365;48.878;8.334;2023-06-22T03:08:31;99939.88;;;21.97;93.13
30598;BME280;17365;48.878;8.334;2023-06-22T03:10:56;99944.41;;;22.14;91.67
30598;BME280;17365;48.878;8.334;2023-06-22T03:13:21;99939.91;;;22.16;91.63
30598;BME280;17365;48.878;8.334;2023-06-22T03:15:46;99935.25;;;22.02;92.23
30598;BME280;17365;48.878;8.334;2023-06-22T03:18:11;99952.44;;;21.35;96.11
30598;BME280;17365;48.878;8.334;2023-06-22T03:20:37;99944.25;;;21.41;96.38
30598;BME280;17365;48.878;8.334;2023-06-22T03:23:02;99942.75;;;21.36;96.27
30598;BME280;17365;48.878;8.334;2023-06-22T03:25:27;99943.91;;;21.68;94.07
30598;BME280;17365;48.878;8.334;2023-06-22T03:27:52;99944.78;;;21.29;96.43
30598;BME280;17365;48.878;8.334;2023-06-22T03:30:17;99942.03;;;21.51;95.73
30598;BME280;17365;48.878;8.334;2023-06-22T03:32:43;99944.00;;;21.66;94.40
30598;BME280;17365;48.878;8.334;2023-06-22T03:35:08;99937.28;;;21.78;93.25
30598;BME280;17365;48.878;8.334;2023-06-22T03:37:33;99929.16;;;21.64;94.42
30598;BME280;17365;48.878;8.334;2023-06-22T03:39:59;99938.84;;;21.82;93.32
30598;BME280;17365;48.878;8.334;2023-06-22T03:42:24;99938.75;;;21.84;92.98
30598;BME280;17365;48.878;8.334;2023-06-22T03:44:49;99942.13;;;21.68;93.86
30598;BME280;17365;48.878;8.334;2023-06-22T03:47:14;99925.47;;;21.85;92.98
30598;BME280;17365;48.878;8.334;2023-06-22T03:49:39;99919.56;;;21.80;92.87
30598;BME280;17365;48.878;8.334;2023-06-22T03:52:05;99924.56;;;21.86;92.94
30598;BME280;17365;48.878;8.334;2023-06-22T03:54:30;99922.72;;;21.69;94.18
30598;BME280;17365;48.878;8.334;2023-06-22T03:56:56;99919.00;;;21.73;93.17
30598;BME280;17365;48.878;8.334;2023-06-22T03:59:22;99919.50;;;21.82;93.62
30598;BME280;17365;48.878;8.334;2023-06-22T04:01:47;99919.34;;;21.47;94.76
30598;BME280;17365;48.878;8.334;2023-06-22T04:04:12;99910.91;;;21.95;91.85
30598;BME280;17365;48.878;8.334;2023-06-22T04:06:37;99908.34;;;21.94;92.56
30598;BME280;17365;48.878;8.334;2023-06-22T04:09:03;99911.72;;;21.78;92.33
30598;BME280;17365;48.878;8.334;2023-06-22T04:11:28;99909.88;;;21.80;92.67
30598;BME280;17365;48.878;8.334;2023-06-22T04:13:53;99906.78;;;22.08;90.65
30598;BME280;17365;48.878;8.334;2023-06-22T04:16:18;99908.91;;;22.00;91.47
30598;BME280;17365;48.878;8.334;2023-06-22T04:18:44;99914.63;;;21.91;92.64
30598;BME280;17365;48.878;8.334;2023-06-22T04:21:10;99908.72;;;21.86;91.34
30598;BME280;17365;48.878;8.334;2023-06-22T04:23:35;99905.88;;;22.61;88.40
30598;BME280;17365;48.878;8.334;2023-06-22T04:26:00;99907.84;;;22.58;88.01
30598;BME280;17365;48.878;8.334;2023-06-22T04:28:25;99907.28;;;22.86;85.31
30598;BME280;17365;48.878;8.334;2023-06-22T04:30:50;99903.50;;;23.24;83.59
30598;BME280;17365;48.878;8.334;2023-06-22T04:33:16;99901.53;;;23.28;83.19
30598;BME280;17365;48.878;8.334;2023-06-22T04:35:41;99901.13;;;23.03;84.07
30598;BME280;17365;48.878;8.334;2023-06-22T04:38:07;99894.06;;;23.03;83.34
30598;BME280;17365;48.878;8.334;2023-06-22T04:40:32;99897.72;;;23.34;81.82
30598;BME280;17365;48.878;8.334;2023-06-22T04:42:57;99884.06;;;23.08;82.95
30598;BME280;17365;48.878;8.334;2023-06-22T04:45:22;99880.63;;;23.55;81.03
30598;BME280;17365;48.878;8.334;2023-06-22T04:47:48;99888.47;;;22.92;83.06
30598;BME280;17365;48.878;8.334;2023-06-22T04:50:13;99889.94;;;23.46;81.41
30598;BME280;17365;48.878;8.334;2023-06-22T04:52:38;99880.50;;;23.58;80.52
30598;BME280;17365;48.878;8.334;2023-06-22T04:55:04;99880.75;;;23.20;81.93
30598;BME280;17365;48.878;8.334;2023-06-22T04:57:29;99869.53;;;23.48;80.80
30598;BME280;17365;48.878;8.334;2023-06-22T05:00:01;99871.88;;;23.70;79.90
30598;BME280;17365;48.878;8.334;2023-06-22T05:02:26;99867.09;;;24.38;76.24
30598;BME280;17365;48.878;8.334;2023-06-22T05:04:52;99869.38;;;23.83;78.78
30598;BME280;17365;48.878;8.334;2023-06-22T05:07:21;99866.59;;;24.46;75.20
30598;BME280;17365;48.878;8.334;2023-06-22T05:09:50;99865.47;;;23.90;76.31
30598;BME280;17365;48.878;8.334;2023-06-22T05:12:15;99867.94;;;24.23;75.99
30598;BME280;17365;48.878;8.334;2023-06-22T05:14:40;99870.34;;;24.58;74.12
30598;BME280;17365;48.878;8.334;2023-06-22T05:17:05;99865.81;;;24.74;73.81
30598;BME280;17365;48.878;8.334;2023-06-22T05:19:38;99844.28;;;24.50;74.82
30598;BME280;17365;48.878;8.334;2023-06-22T05:22:03;99849.84;;;24.46;75.26
30598;BME280;17365;48.878;8.334;2023-06-22T05:24:28;99854.31;;;23.52;78.58
30598;BME280;17365;48.878;8.334;2023-06-22T05:26:53;99861.00;;;23.91;77.86
30598;BME280;17365;48.878;8.334;2023-06-22T05:29:19;99854.31;;;23.99;76.46
30598;BME280;17365;48.878;8.334;2023-06-22T05:31:44;99840.44;;;24.10;75.45
30598;BME280;17365;48.878;8.334;2023-06-22T05:34:09;99847.00;;;23.57;79.66
30598;BME280;17365;48.878;8.334;2023-06-22T05:36:34;99852.38;;;24.33;76.73
30598;BME280;17365;48.878;8.334;2023-06-22T05:39:10;99845.22;;;24.49;74.91
30598;BME280;17365;48.878;8.334;2023-06-22T05:41:36;99850.41;;;24.36;74.62
30598;BME280;17365;48.878;8.334;2023-06-22T05:44:01;99840.88;;;24.62;74.35
30598;BME280;17365;48.878;8.334;2023-06-22T05:46:27;99839.63;;;23.94;77.07
30598;BME280;17365;48.878;8.334;2023-06-22T05:48:52;99847.06;;;24.33;75.58
30598;BME280;17365;48.878;8.334;2023-06-22T05:51:17;99856.06;;;23.69;78.05
30598;BME280;17365;48.878;8.334;2023-06-22T05:53:42;99859.88;;;24.41;76.07
30598;BME280;17365;48.878;8.334;2023-06-22T05:56:09;99861.88;;;23.91;77.76
30598;BME280;17365;48.878;8.334;2023-06-22T05:58:35;99850.06;;;24.57;75.19
30598;BME280;17365;48.878;8.334;2023-06-22T06:01:00;99851.94;;;24.55;76.05
30598;BME280;17365;48.878;8.334;2023-06-22T06:03:25;99848.72;;;24.50;75.61
30598;BME280;17365;48.878;8.334;2023-06-22T06:05:53;99850.88;;;24.43;74.43
30598;BME280;17365;48.878;8.334;2023-06-22T06:08:18;99855.34;;;24.57;74.88
30598;BME280;17365;48.878;8.334;2023-06-22T06:10:44;99849.63;;;24.34;75.41
30598;BME280;17365;48.878;8.334;2023-06-22T06:13:09;99860.41;;;24.76;74.87
30598;BME280;17365;48.878;8.334;2023-06-22T06:15:34;99844.63;;;25.17;71.82
30598;BME280;17365;48.878;8.334;2023-06-22T06:18:00;99846.25;;;25.19;71.85
30598;BME280;17365;48.878;8.334;2023-06-22T06:20:25;99837.03;;;24.82;73.47
30598;BME280;17365;48.878;8.334;2023-06-22T06:22:52;99830.97;;;24.94;73.67
30598;BME280;17365;48.878;8.334;2023-06-22T06:25:18;99836.16;;;25.39;71.84
30598;BME280;17365;48.878;8.334;2023-06-22T06:27:48;99823.34;;;25.45;70.41
30598;BME280;17365;48.878;8.334;2023-06-22T06:30:14;99826.13;;;24.73;73.37
30598;BME280;17365;48.878;8.334;2023-06-22T06:32:40;99818.38;;;24.70;74.85
30598;BME280;17365;48.878;8.334;2023-06-22T06:35:06;99817.13;;;24.89;73.66
30598;BME280;17365;48.878;8.334;2023-06-22T06:37:31;99826.31;;;24.84;74.18
30598;BME280;17365;48.878;8.334;2023-06-22T06:39:57;99820.25;;;24.82;74.16
30598;BME280;17365;48.878;8.334;2023-06-22T06:42:22;99819.03;;;25.02;73.63
30598;BME280;17365;48.878;8.334;2023-06-22T06:44:49;99815.91;;;25.09;73.04
30598;BME280;17365;48.878;8.334;2023-06-22T06:47:15;99816.84;;;25.08;73.41
30598;BME280;17365;48.878;8.334;2023-06-22T06:49:40;99815.59;;;25.69;71.08
30598;BME280;17365;48.878;8.334;2023-06-22T06:52:05;99807.28;;;25.88;69.91
30598;BME280;17365;48.878;8.334;2023-06-22T06:54:31;99798.84;;;26.08;68.61
30598;BME280;17365;48.878;8.334;2023-06-22T06:56:56;99803.94;;;26.11;68.49
30598;BME280;17365;48.878;8.334;2023-06-22T06:59:21;99802.75;;;26.03;68.13
30598;BME280;17365;48.878;8.334;2023-06-22T07:01:47;99802.63;;;26.04;68.38
30598;BME280;17365;48.878;8.334;2023-06-22T07:04:13;99808.31;;;25.73;69.99
30598;BME280;17365;48.878;8.334;2023-06-22T07:06:39;99800.56;;;26.22;67.79
30598;BME280;17365;48.878;8.334;2023-06-22T07:09:04;99798.34;;;26.29;68.33
30598;BME280;17365;48.878;8.334;2023-06-22T07:11:29;99787.25;;;26.09;67.35
30598;BME280;17365;48.878;8.334;2023-06-22T07:13:54;99791.16;;;26.56;66.63
30598;BME280;17365;48.878;8.334;2023-06-22T07:16:19;99779.31;;;26.86;65.03
30598;BME280;17365;48.878;8.334;2023-06-22T07:18:45;99785.31;;;26.51;66.31
30598;BME280;17365;48.878;8.334;2023-06-22T07:21:10;99792.50;;;26.36;66.10
30598;BME280;17365;48.878;8.334;2023-06-22T07:23:35;99782.19;;;27.08;64.31
30598;BME280;17365;48.878;8.334;2023-06-22T07:26:00;99776.44;;;27.38;62.54
30598;BME280;17365;48.878;8.334;2023-06-22T07:28:31;99788.34;;;27.45;61.87
30598;BME280;17365;48.878;8.334;2023-06-22T07:31:01;99786.69;;;27.68;61.84
30598;BME280;17365;48.878;8.334;2023-06-22T07:33:27;99770.53;;;27.94;60.58
30598;BME280;17365;48.878;8.334;2023-06-22T07:35:52;99774.19;;;27.45;62.39
30598;BME280;17365;48.878;8.334;2023-06-22T07:38:17;99778.13;;;27.39;61.72
30598;BME280;17365;48.878;8.334;2023-06-22T07:40:43;99774.97;;;27.58;60.92
30598;BME280;17365;48.878;8.334;2023-06-22T07:43:09;99775.97;;;27.20;62.24
30598;BME280;17365;48.878;8.334;2023-06-22T07:45:34;99785.84;;;27.68;60.93
30598;BME280;17365;48.878;8.334;2023-06-22T07:48:00;99791.78;;;27.71;60.20
30598;BME280;17365;48.878;8.334;2023-06-22T07:50:25;99792.97;;;27.91;59.48
30598;BME280;17365;48.878;8.334;2023-06-22T07:52:50;99796.75;;;27.15;61.25
30598;BME280;17365;48.878;8.334;2023-06-22T07:55:17;99794.94;;;27.52;60.17
30598;BME280;17365;48.878;8.334;2023-06-22T07:57:43;99803.91;;;27.02;61.90
30598;BME280;17365;48.878;8.334;2023-06-22T08:00:08;99810.81;;;27.54;60.48
30598;BME280;17365;48.878;8.334;2023-06-22T08:02:41;99811.19;;;27.61;58.98
30598;BME280;17365;48.878;8.334;2023-06-22T08:05:06;99812.50;;;27.68;59.04
30598;BME280;17365;48.878;8.334;2023-06-22T08:07:33;99816.00;;;27.68;59.18
30598;BME280;17365;48.878;8.334;2023-06-22T08:09:58;99828.13;;;28.20;58.60
30598;BME280;17365;48.878;8.334;2023-06-22T08:12:23;99830.75;;;28.44;56.71
30598;BME280;17365;48.878;8.334;2023-06-22T08:14:49;99856.84;;;28.52;56.97
30598;BME280;17365;48.878;8.334;2023-06-22T08:17:14;99861.59;;;28.59;56.88
30598;BME280;17365;48.878;8.334;2023-06-22T08:19:39;99873.94;;;28.49;56.82
30598;BME280;17365;48.878;8.334;2023-06-22T08:22:05;99890.28;;;28.33;56.74
30598;BME280;17365;48.878;8.334;2023-06-22T08:24:30;99895.00;;;28.17;58.32
30598;BME280;17365;48.878;8.334;2023-06-22T08:26:55;99899.19;;;27.84;59.76
30598;BME280;17365;48.878;8.334;2023-06-22T08:29:20;99896.50;;;28.21;60.22
30598;BME280;17365;48.878;8.334;2023-06-22T08:31:46;99865.19;;;28.12;60.62
30598;BME280;17365;48.878;8.334;2023-06-22T08:34:11;99842.41;;;28.43;60.50
30598;BME280;17365;48.878;8.334;2023-06-22T08:36:36;99821.06;;;28.43;60.78
30598;BME280;17365;48.878;8.334;2023-06-22T08:39:08;99819.25;;;28.55;59.99
30598;BME280;17365;48.878;8.334;2023-06-22T08:41:33;99818.97;;;28.35;61.22
30598;BME280;17365;48.878;8.334;2023-06-22T08:43:58;99811.28;;;29.11;58.55
30598;BME280;17365;48.878;8.334;2023-06-22T08:46:24;99820.25;;;29.21;57.16
30598;BME280;17365;48.878;8.334;2023-06-22T08:48:55;99831.91;;;29.20;57.20
30598;BME280;17365;48.878;8.334;2023-06-22T08:51:20;99839.69;;;29.45;57.68
30598;BME280;17365;48.878;8.334;2023-06-22T08:53:45;99843.09;;;29.59;56.17
30598;BME280;17365;48.878;8.334;2023-06-22T08:56:11;99824.63;;;29.88;55.33
30598;BME280;17365;48.878;8.334;2023-06-22T08:58:36;99846.47;;;30.04;55.52
30598;BME280;17365;48.878;8.334;2023-06-22T09:01:01;99824.78;;;30.39;54.09
30598;BME280;17365;48.878;8.334;2023-06-22T09:03:27;99828.50;;;30.27;54.96
30598;BME280;17365;48.878;8.334;2023-06-22T09:05:52;99834.91;;;30.03;55.71
30598;BME280;17365;48.878;8.334;2023-06-22T09:08:17;99829.38;;;29.84;56.21
30598;BME280;17365;48.878;8.334;2023-06-22T09:10:42;99828.75;;;29.60;57.81
30598;BME280;17365;48.878;8.334;2023-06-22T09:13:07;99831.13;;;29.74;56.53
30598;BME280;17365;48.878;8.334;2023-06-22T09:15:33;99823.31;;;29.82;57.18
30598;BME280;17365;48.878;8.334;2023-06-22T09:17:59;99824.53;;;29.12;59.23
30598;BME280;17365;48.878;8.334;2023-06-22T09:20:24;99833.72;;;29.53;58.85
30598;BME280;17365;48.878;8.334;2023-06-22T09:22:49;99816.41;;;29.14;58.40
30598;BME280;17365;48.878;8.334;2023-06-22T09:25:14;99808.94;;;29.51;57.18
30598;BME280;17365;48.878;8.334;2023-06-22T09:27:40;99796.84;;;29.79;55.65
30598;BME280;17365;48.878;8.334;2023-06-22T09:30:05;99786.59;;;29.84;56.04
30598;BME280;17365;48.878;8.334;2023-06-22T09:32:31;99786.03;;;29.80;54.84
30598;BME280;17365;48.878;8.334;2023-06-22T09:34:56;99771.06;;;30.31;54.57
30598;BME280;17365;48.878;8.334;2023-06-22T09:37:22;99768.31;;;30.21;54.21
30598;BME280;17365;48.878;8.334;2023-06-22T09:39:47;99755.78;;;30.42;53.97
30598;BME280;17365;48.878;8.334;2023-06-22T09:42:12;99745.03;;;30.94;51.13
30598;BME280;17365;48.878;8.334;2023-06-22T09:44:38;99751.88;;;30.26;52.24
30598;BME280;17365;48.878;8.334;2023-06-22T09:47:03;99740.53;;;30.94;50.71
30598;BME280;17365;48.878;8.334;2023-06-22T09:49:29;99722.78;;;30.93;50.88
30598;BME280;17365;48.878;8.334;2023-06-22T09:51:54;99719.69;;;30.67;50.74
30598;BME280;17365;48.878;8.334;2023-06-22T09:54:19;99727.38;;;31.22;50.12
30598;BME280;17365;48.878;8.334;2023-06-22T09:56:44;99723.53;;;31.15;49.46
30598;BME280;17365;48.878;8.334;2023-06-22T09:59:09;99720.97;;;31.13;50.25
30598;BME280;17365;48.878;8.334;2023-06-22T10:01:35;99736.94;;;31.24;49.15
30598;BME280;17365;48.878;8.334;2023-06-22T10:04:01;99738.13;;;31.01;50.43
30598;BME280;17365;48.878;8.334;2023-06-22T10:06:26;99750.38;;;30.84;51.35
30598;BME280;17365;48.878;8.334;2023-06-22T10:08:51;99749.00;;;30.69;51.51
30598;BME280;17365;48.878;8.334;2023-06-22T10:11:17;99738.38;;;30.27;53.08
30598;BME280;17365;48.878;8.334;2023-06-22T10:13:42;99737.63;;;30.77;52.06
30598;BME280;17365;48.878;8.334;2023-06-22T10:16:07;99727.94;;;30.85;52.05
30598;BME280;17365;48.878;8.334;2023-06-22T10:18:33;99725.69;;;31.31;50.96
30598;BME280;17365;48.878;8.334;2023-06-22T10:20:58;99725.69;;;31.31;50.96
30598;BME280;17365;48.878;8.334;2023-06-22T10:23:23;99737.50;;;30.78;51.56
30598;BME280;17365;48.878;8.334;2023-06-22T10:25:48;99726.72;;;30.99;50.99
30598;BME280;17365;48.878;8.334;2023-06-22T10:28:14;99727.31;;;31.12;50.74
30598;BME280;17365;48.878;8.334;2023-06-22T10:30:39;99732.38;;;30.44;52.38
30598;BME280;17365;48.878;8.334;2023-06-22T10:33:08;99724.28;;;30.25;53.57
30598;BME280;17365;48.878;8.334;2023-06-22T10:35:33;99723.41;;;30.76;52.14
30598;BME280;17365;48.878;8.334;2023-06-22T10:37:58;99721.91;;;31.02;51.22
30598;BME280;17365;48.878;8.334;2023-06-22T10:40:24;99719.34;;;30.82;51.56
30598;BME280;17365;48.878;8.334;2023-06-22T10:42:49;99709.63;;;31.50;49.87
30598;BME280;17365;48.878;8.334;2023-06-22T10:45:15;99715.84;;;31.89;48.37
30598;BME280;17365;48.878;8.334;2023-06-22T10:47:40;99710.63;;;31.88;48.54
30598;BME280;17365;48.878;8.334;2023-06-22T10:50:07;99702.56;;;31.97;47.59
30598;BME280;17365;48.878;8.334;2023-06-22T10:52:33;99713.16;;;31.50;49.25
30598;BME280;17365;48.878;8.334;2023-06-22T10:54:58;99721.66;;;31.75;49.00
30598;BME280;17365;48.878;8.334;2023-06-22T10:57:23;99721.06;;;31.81;48.76
30598;BME280;17365;48.878;8.334;2023-06-22T10:59:48;99708.84;;;32.15;47.89
30598;BME280;17365;48.878;8.334;2023-06-22T11:02:13;99709.53;;;32.27;47.71
30598;BME280;17365;48.878;8.334;2023-06-22T11:04:39;99698.69;;;32.29;47.13
30598;BME280;17365;48.878;8.334;2023-06-22T11:07:04;99707.06;;;32.63;47.62
30598;BME280;17365;48.878;8.334;2023-06-22T11:09:29;99711.44;;;31.59;49.91
30598;BME280;17365;48.878;8.334;2023-06-22T11:11:55;99713.88;;;30.93;52.09
30598;BME280;17365;48.878;8.334;2023-06-22T11:14:21;99722.72;;;30.84;53.25
30598;BME280;17365;48.878;8.334;2023-06-22T11:16:46;99711.59;;;31.67;50.71
30598;BME280;17365;48.878;8.334;2023-06-22T11:19:12;99696.28;;;32.16;48.82
30598;BME280;17365;48.878;8.334;2023-06-22T11:21:37;99693.56;;;31.00;51.87
30598;BME280;17365;48.878;8.334;2023-06-22T11:24:03;99686.72;;;31.17;51.97
30598;BME280;17365;48.878;8.334;2023-06-22T11:26:28;99690.56;;;31.82;50.38
30598;BME280;17365;48.878;8.334;2023-06-22T11:28:53;99699.59;;;31.33;51.36
30598;BME280;17365;48.878;8.334;2023-06-22T11:31:18;99696.91;;;31.81;50.50
30598;BME280;17365;48.878;8.334;2023-06-22T11:33:44;99691.81;;;31.68;50.76
30598;BME280;17365;48.878;8.334;2023-06-22T11:36:11;99683.84;;;32.34;48.62
30598;BME280;17365;48.878;8.334;2023-06-22T11:38:36;99694.38;;;32.46;48.30
30598;BME280;17365;48.878;8.334;2023-06-22T11:41:04;99689.97;;;32.82;47.01
30598;BME280;17365;48.878;8.334;2023-06-22T11:43:29;99709.63;;;31.40;50.00
30598;BME280;17365;48.878;8.334;2023-06-22T11:45:54;99723.38;;;30.15;53.20
30598;BME280;17365;48.878;8.334;2023-06-22T11:48:21;99721.72;;;31.25;50.31
30598;BME280;17365;48.878;8.334;2023-06-22T11:50:46;99724.00;;;32.07;48.08
30598;BME280;17365;48.878;8.334;2023-06-22T11:53:11;99725.13;;;31.46;49.90
30598;BME280;17365;48.878;8.334;2023-06-22T11:55:37;99730.50;;;30.87;53.65
30598;BME280;17365;48.878;8.334;2023-06-22T11:58:02;99726.00;;;30.97;52.78
30598;BME280;17365;48.878;8.334;2023-06-22T12:00:29;99724.06;;;31.09;51.95
30598;BME280;17365;48.878;8.334;2023-06-22T12:02:55;99729.59;;;31.17;51.89
30598;BME280;17365;48.878;8.334;2023-06-22T12:05:21;99721.59;;;31.36;51.09
30598;BME280;17365;48.878;8.334;2023-06-22T12:07:47;99721.22;;;31.60;49.83
30598;BME280;17365;48.878;8.334;2023-06-22T12:10:12;99723.22;;;31.08;52.24
30598;BME280;17365;48.878;8.334;2023-06-22T12:12:37;99716.78;;;32.17;49.51
30598;BME280;17365;48.878;8.334;2023-06-22T12:15:03;99722.75;;;31.82;49.51
30598;BME280;17365;48.878;8.334;2023-06-22T12:17:29;99714.25;;;31.57;51.10
30598;BME280;17365;48.878;8.334;2023-06-22T12:19:54;99720.31;;;31.31;51.92
30598;BME280;17365;48.878;8.334;2023-06-22T12:22:20;99721.78;;;31.83;51.03
30598;BME280;17365;48.878;8.334;2023-06-22T12:24:45;99726.25;;;31.34;52.60
30598;BME280;17365;48.878;8.334;2023-06-22T12:27:10;99736.91;;;31.74;51.35
30598;BME280;17365;48.878;8.334;2023-06-22T12:29:35;99743.22;;;31.64;51.90
30598;BME280;17365;48.878;8.334;2023-06-22T12:32:00;99746.16;;;31.41;52.53
30598;BME280;17365;48.878;8.334;2023-06-22T12:34:26;99744.44;;;30.90;53.96
30598;BME280;17365;48.878;8.334;2023-06-22T12:36:51;99739.63;;;31.24;53.04
30598;BME280;17365;48.878;8.334;2023-06-22T12:39:19;99731.91;;;31.41;53.25
30598;BME280;17365;48.878;8.334;2023-06-22T12:41:44;99737.44;;;31.78;52.48
30598;BME280;17365;48.878;8.334;2023-06-22T12:44:09;99731.47;;;32.13;51.45
30598;BME280;17365;48.878;8.334;2023-06-22T12:46:34;99728.81;;;31.55;53.81
30598;BME280;17365;48.878;8.334;2023-06-22T12:49:02;99736.44;;;31.50;54.17
30598;BME280;17365;48.878;8.334;2023-06-22T12:51:28;99735.16;;;31.54;52.52
30598;BME280;17365;48.878;8.334;2023-06-22T12:53:54;99727.72;;;31.86;51.72
30598;BME280;17365;48.878;8.334;2023-06-22T12:56:19;99719.00;;;32.41;50.29
30598;BME280;17365;48.878;8.334;2023-06-22T12:58:44;99726.72;;;31.88;51.42